Bellwood, Illinois
Current Conditions -  °F | °C
As of 6:51 PM on Monday 26 Jan 2015 (Local Time) from KORD Reporting Station
Light Snow Light Snow  
Wind Chill: -9°   Ceiling: 700
Heat Index: -4°   Visibility: 3mi
Dew Point: -5°   Wind: 8mph
Humidity: 92%   Direction: 180°S
Pressure: 29.89"   Gusts: NA
Location:  41.88°N, 87.87°W
Report Text: KORD 270051Z 18007KT 3SM -FZDZSN BR OVC007 M04/M05 A2989 RMK AO2 FZDZB07 CIG 005V010 SLP133 P0001 I1000 T10391050
Loading
Personal Weather Stations






























Interactive Weather Map New forecast layout! Learn more

10-Day Weather Forecast

Advertisements
Track Severe Weather on mobile